createdAt,value
2022-11-02T00:02:18.499Z,23.90
2022-11-02T00:04:46.136Z,23.40
2022-11-02T00:07:13.652Z,23.90
2022-11-02T00:09:41.000Z,24.23
2022-11-02T00:12:08.584Z,23.73
2022-11-02T00:14:36.232Z,23.35
2022-11-02T00:17:04.007Z,22.48
2022-11-02T00:19:31.504Z,23.07
2022-11-02T00:22:01.044Z,24.00
2022-11-02T00:24:31.990Z,22.17
2022-11-02T00:26:59.738Z,22.67
2022-11-02T00:29:33.456Z,21.77
2022-11-02T00:31:57.614Z,21.68
2022-11-02T00:34:25.339Z,21.25
2022-11-02T00:36:55.610Z,21.52
2022-11-02T00:39:23.569Z,22.85
2022-11-02T00:41:51.321Z,23.65
2022-11-02T00:44:19.222Z,23.05
2022-11-02T00:46:47.065Z,21.82
2022-11-02T00:49:14.891Z,22.17
2022-11-02T00:51:43.837Z,21.50
2022-11-02T00:54:13.066Z,21.27
2022-11-02T00:56:40.691Z,20.57
2022-11-02T00:59:08.406Z,22.48
2022-11-02T01:01:36.076Z,21.93
2022-11-02T01:04:03.836Z,21.87
2022-11-02T01:06:32.224Z,20.90
2022-11-02T01:09:03.596Z,20.43
2022-11-02T01:11:36.630Z,20.40
2022-11-02T01:14:07.837Z,20.65
2022-11-02T01:16:41.073Z,20.40
2022-11-02T01:21:44.038Z,21.87
2022-11-02T01:24:14.454Z,23.52
2022-11-02T01:26:42.860Z,21.17
2022-11-02T01:29:13.727Z,24.10
2022-11-02T01:31:41.132Z,23.35
2022-11-02T01:34:08.568Z,24.63
2022-11-02T01:36:36.344Z,23.52
2022-11-02T01:39:04.000Z,23.70
2022-11-02T01:41:31.707Z,24.37
2022-11-02T01:44:04.344Z,25.10
2022-11-02T01:46:42.146Z,24.95
2022-11-02T01:49:14.339Z,23.95
2022-11-02T01:51:53.231Z,23.83
2022-11-02T01:54:29.034Z,22.75
2022-11-02T01:57:01.220Z,23.70
2022-11-02T01:59:37.004Z,22.20
2022-11-02T02:02:09.637Z,20.32
2022-11-02T02:04:37.979Z,18.70
2022-11-02T02:07:05.856Z,18.23
2022-11-02T02:09:34.353Z,19.40
2022-11-02T02:12:02.363Z,17.55
2022-11-02T02:14:30.187Z,18.37
2022-11-02T02:17:36.257Z,18.95
2022-11-02T02:20:36.877Z,19.25
2022-11-02T02:23:55.160Z,20.27
2022-11-02T02:26:37.493Z,19.65
2022-11-02T02:29:24.565Z,21.17
2022-11-02T02:32:16.312Z,21.37
2022-11-02T02:34:54.682Z,20.30
2022-11-02T02:37:53.518Z,18.95
2022-11-02T02:40:26.494Z,19.82
2022-11-02T02:43:01.348Z,19.92
2022-11-02T02:45:59.173Z,23.22
2022-11-02T02:48:28.222Z,20.50
2022-11-02T02:51:03.846Z,19.07
2022-11-02T02:53:50.581Z,15.68
2022-11-02T02:56:21.947Z,14.10
2022-11-02T02:59:00.558Z,15.50
2022-11-02T03:01:28.775Z,15.70
2022-11-02T03:03:56.495Z,15.05
2022-11-02T03:06:33.870Z,14.85
2022-11-02T03:09:20.520Z,14.68
2022-11-02T03:12:06.101Z,14.07
2022-11-02T03:15:13.473Z,13.32
2022-11-02T03:18:25.620Z,13.28
2022-11-02T03:21:42.382Z,13.28
2022-11-02T03:24:17.048Z,11.95
2022-11-02T03:27:13.258Z,11.97
2022-11-02T03:30:16.896Z,11.88
2022-11-02T03:33:07.909Z,13.22
2022-11-02T03:35:52.237Z,11.53
2022-11-02T03:38:54.471Z,12.07
2022-11-02T03:41:24.622Z,11.70
2022-11-02T03:43:57.710Z,11.33
2022-11-02T03:46:27.493Z,12.47
2022-11-02T03:48:56.594Z,11.95
2022-11-02T03:51:26.634Z,11.88
2022-11-02T03:54:07.733Z,13.10
2022-11-02T03:56:41.602Z,12.82
2022-11-02T03:59:09.313Z,13.25
2022-11-02T04:01:42.810Z,12.95
2022-11-02T04:04:11.335Z,13.43
2022-11-02T04:06:41.925Z,12.13
2022-11-02T04:09:11.615Z,14.68
2022-11-02T04:11:58.188Z,12.23
2022-11-02T04:14:40.884Z,12.90
2022-11-02T04:19:59.053Z,13.65
2022-11-02T04:22:44.883Z,12.47
2022-11-02T04:25:20.044Z,12.88
2022-11-02T04:28:09.329Z,11.50
2022-11-02T04:30:41.468Z,12.50
2022-11-02T04:33:27.726Z,13.03
2022-11-02T04:36:00.951Z,11.45
2022-11-02T04:38:42.126Z,11.97
2022-11-02T04:41:33.721Z,11.78
2022-11-02T04:44:01.927Z,12.33
2022-11-02T04:46:33.866Z,12.37
2022-11-02T04:49:01.866Z,11.35
2022-11-02T04:51:31.391Z,12.07
2022-11-02T04:53:59.488Z,11.60
2022-11-02T04:56:29.033Z,12.18
2022-11-02T04:58:59.287Z,12.28
2022-11-02T05:01:29.645Z,10.32
2022-11-02T05:03:58.926Z,12.03
2022-11-02T05:06:27.546Z,11.05
2022-11-02T05:08:55.577Z,10.98
2022-11-02T05:11:24.032Z,10.88
2022-11-02T05:13:51.910Z,10.65
2022-11-02T05:16:19.560Z,11.48
2022-11-02T05:18:48.758Z,12.43
2022-11-02T05:21:16.701Z,10.38
2022-11-02T05:23:44.811Z,9.65
2022-11-02T05:26:12.562Z,10.90
2022-11-02T05:28:41.734Z,11.33
2022-11-02T05:31:09.858Z,10.65
2022-11-02T05:33:37.575Z,11.70
2022-11-02T05:36:07.435Z,10.63
2022-11-02T05:38:36.281Z,11.80
2022-11-02T05:41:04.026Z,12.58
2022-11-02T05:43:33.514Z,13.32
2022-11-02T05:46:03.529Z,11.75
2022-11-02T05:48:33.271Z,11.73
2022-11-02T05:51:03.322Z,10.90
2022-11-02T05:53:33.341Z,11.12
2022-11-02T05:56:03.367Z,11.00
2022-11-02T05:58:32.418Z,8.00
2022-11-02T06:01:02.761Z,10.00
2022-11-02T06:03:31.547Z,9.88
2022-11-02T06:06:02.823Z,6.12
2022-11-02T06:08:38.955Z,5.67
2022-11-02T06:11:09.753Z,9.23
2022-11-02T06:13:37.404Z,9.55
2022-11-02T06:16:09.714Z,9.65
2022-11-02T06:18:39.188Z,7.72
2022-11-02T06:21:07.461Z,8.05
2022-11-02T06:23:35.742Z,8.40
2022-11-02T06:26:03.657Z,8.10
2022-11-02T06:28:31.510Z,8.03
2022-11-02T06:30:59.163Z,7.25
2022-11-02T06:33:27.132Z,7.30
2022-11-02T06:35:55.382Z,7.53
2022-11-02T06:38:23.728Z,7.87
2022-11-02T06:41:02.587Z,7.90
2022-11-02T06:43:30.567Z,8.25
2022-11-02T06:45:58.588Z,8.83
2022-11-02T06:48:34.201Z,8.30
2022-11-02T06:50:57.739Z,11.60
2022-11-02T06:53:25.932Z,12.82
2022-11-02T06:55:55.874Z,10.23
2022-11-02T06:58:24.127Z,10.45
2022-11-02T07:01:01.523Z,8.58
2022-11-02T07:03:30.532Z,8.53
2022-11-02T07:05:58.993Z,7.30
2022-11-02T07:08:29.033Z,8.18
2022-11-02T07:10:57.531Z,8.35
2022-11-02T07:13:25.146Z,8.18
2022-11-02T07:15:54.248Z,7.65
2022-11-02T07:18:22.910Z,7.08
2022-11-02T07:20:50.585Z,7.10
2022-11-02T07:23:18.222Z,6.70
2022-11-02T07:25:45.799Z,7.40
2022-11-02T07:28:13.778Z,7.62
2022-11-02T07:30:41.627Z,8.05
2022-11-02T07:33:09.281Z,8.20
2022-11-02T07:35:37.226Z,7.47
2022-11-02T07:38:07.369Z,7.62
2022-11-02T07:40:36.084Z,7.62
2022-11-02T07:43:05.324Z,10.75
2022-11-02T07:45:34.934Z,7.72
2022-11-02T07:48:02.480Z,10.18
2022-11-02T07:50:29.929Z,8.58
2022-11-02T07:52:58.697Z,9.60
2022-11-02T07:55:29.872Z,9.75
2022-11-02T07:58:03.896Z,8.50
2022-11-02T08:00:34.956Z,7.30
2022-11-02T08:03:04.923Z,6.72
2022-11-02T08:05:38.905Z,7.28
2022-11-02T08:08:11.156Z,7.12
2022-11-02T08:10:40.412Z,6.15
2022-11-02T08:13:15.279Z,8.40
2022-11-02T08:15:42.945Z,8.70
2022-11-02T08:18:19.969Z,8.43
2022-11-02T08:20:48.281Z,7.80
2022-11-02T08:23:18.517Z,7.35
2022-11-02T08:25:47.562Z,6.70
2022-11-02T08:28:19.404Z,7.12
2022-11-02T08:30:47.252Z,7.20
2022-11-02T08:33:16.763Z,7.53
2022-11-02T08:35:46.170Z,8.50
2022-11-02T08:38:14.842Z,9.08
2022-11-02T08:40:42.947Z,10.40
2022-11-02T08:43:13.684Z,10.68
2022-11-02T08:48:14.877Z,11.53
2022-11-02T08:50:42.189Z,9.43
2022-11-02T08:53:10.005Z,10.82
2022-11-02T08:55:37.461Z,8.75
2022-11-02T08:58:05.299Z,9.30
2022-11-02T09:00:34.597Z,8.58
2022-11-02T09:03:09.150Z,9.48
2022-11-02T09:05:40.276Z,9.93
2022-11-02T09:08:12.289Z,7.97
2022-11-02T09:10:40.121Z,25.27
2022-11-02T09:13:11.490Z,12.65
2022-11-02T09:15:39.927Z,13.98
2022-11-02T09:18:09.907Z,8.48
2022-11-02T09:20:37.519Z,8.50
2022-11-02T09:23:04.883Z,8.45
2022-11-02T09:25:32.565Z,9.00
2022-11-02T09:28:00.244Z,11.10
2022-11-02T09:30:29.886Z,12.73
2022-11-02T09:33:06.559Z,13.30
2022-11-02T09:35:38.929Z,14.10
2022-11-02T09:38:07.038Z,17.45
2022-11-02T09:40:42.555Z,11.70
2022-11-02T09:43:29.460Z,11.18
2022-11-02T09:48:44.818Z,10.98
2022-11-02T09:51:35.655Z,12.33
2022-11-02T09:54:17.942Z,11.95
2022-11-02T09:56:46.889Z,13.15
2022-11-02T09:59:21.951Z,13.30
2022-11-02T10:02:20.889Z,13.95
2022-11-02T10:05:09.252Z,12.58
2022-11-02T10:08:01.053Z,11.83
2022-11-02T10:10:52.025Z,11.90
2022-11-02T10:13:25.052Z,11.20
2022-11-02T10:16:01.198Z,12.00
2022-11-02T10:18:30.102Z,11.50
2022-11-02T10:21:02.891Z,11.43
2022-11-02T10:23:35.500Z,11.07
2022-11-02T10:26:04.323Z,11.20
2022-11-02T10:28:38.811Z,11.85
2022-11-02T10:31:15.830Z,11.80
2022-11-02T10:33:43.554Z,11.70
2022-11-02T10:36:31.337Z,11.93
2022-11-02T10:39:24.205Z,13.75
2022-11-02T10:42:18.564Z,13.95
2022-11-02T10:45:21.563Z,13.58
2022-11-02T10:48:20.071Z,14.47
2022-11-02T10:50:55.227Z,13.95
2022-11-02T10:56:13.066Z,15.18
2022-11-02T10:58:45.814Z,14.38
2022-11-02T11:01:13.805Z,14.90
2022-11-02T11:04:06.773Z,16.12
2022-11-02T11:06:42.771Z,15.83
2022-11-02T11:09:23.653Z,14.80
2022-11-02T11:12:21.695Z,13.78
2022-11-02T11:20:27.755Z,15.70
2022-11-02T11:23:22.426Z,18.40
2022-11-02T11:26:10.706Z,17.12
2022-11-02T11:28:56.473Z,17.55
2022-11-02T11:31:25.115Z,17.32
2022-11-02T11:33:56.083Z,18.92
2022-11-02T11:36:31.106Z,18.57
2022-11-02T11:39:07.111Z,18.45
2022-11-02T11:41:39.541Z,18.50
2022-11-02T11:44:11.688Z,17.40
2022-11-02T11:46:45.762Z,19.30
2022-11-02T11:50:02.934Z,17.57
2022-11-02T11:52:03.867Z,17.05
2022-11-02T11:54:33.305Z,16.95
2022-11-02T11:57:27.688Z,17.00
2022-11-02T11:59:57.918Z,15.58
2022-11-02T12:02:35.683Z,15.50
2022-11-02T12:05:16.373Z,15.32
2022-11-02T12:08:10.399Z,17.73
2022-11-02T12:10:46.276Z,18.10
2022-11-02T12:13:45.415Z,19.20
2022-11-02T12:16:36.624Z,18.27
2022-11-02T12:19:33.006Z,20.25
2022-11-02T12:22:05.124Z,21.52
2022-11-02T12:25:25.332Z,20.65
2022-11-02T12:28:08.659Z,20.95
2022-11-02T12:30:44.022Z,20.68
2022-11-02T12:33:38.479Z,21.87
2022-11-02T12:36:32.711Z,20.57
2022-11-02T12:39:11.658Z,20.37
2022-11-02T12:42:02.275Z,18.40
2022-11-02T12:45:21.191Z,18.85
2022-11-02T12:48:00.929Z,19.37
2022-11-02T12:50:55.123Z,18.70
2022-11-02T12:53:46.399Z,17.98
2022-11-02T12:56:34.450Z,18.02
2022-11-02T12:59:02.348Z,19.48
2022-11-02T13:01:40.324Z,21.35
2022-11-02T13:04:30.311Z,21.17
2022-11-02T13:07:03.725Z,20.90
2022-11-02T13:09:58.963Z,20.90
2022-11-02T13:12:27.682Z,18.37
2022-11-02T13:14:57.756Z,21.87
2022-11-02T13:17:44.899Z,20.43
2022-11-02T13:20:29.434Z,19.98
2022-11-02T13:23:36.045Z,20.80
2022-11-02T13:26:21.370Z,20.35
2022-11-02T13:28:53.904Z,18.87
2022-11-02T13:31:29.347Z,19.87
2022-11-02T13:34:01.576Z,20.32
2022-11-02T13:36:29.235Z,21.12
2022-11-02T13:39:02.617Z,19.67
2022-11-02T13:42:07.585Z,18.80
2022-11-02T13:44:43.416Z,21.20
2022-11-02T13:47:57.730Z,20.97
2022-11-02T13:50:28.271Z,23.75
2022-11-02T13:53:04.603Z,25.10
2022-11-02T13:55:46.115Z,32.15
2022-11-02T13:58:24.482Z,41.37
2022-11-02T14:00:56.491Z,54.30
2022-11-02T14:03:50.898Z,30.65
2022-11-02T14:06:20.396Z,29.30
2022-11-02T14:09:04.846Z,39.60
2022-11-02T14:11:43.358Z,27.48
2022-11-02T14:14:21.600Z,22.95
2022-11-02T14:16:55.401Z,23.62
2022-11-02T14:19:51.961Z,24.95
2022-11-02T14:22:20.560Z,39.15
2022-11-02T14:24:53.927Z,26.50
2022-11-02T14:27:26.993Z,23.98
2022-11-02T14:29:55.676Z,22.37
2022-11-02T14:32:43.153Z,21.97
2022-11-02T14:35:28.284Z,22.22
2022-11-02T14:38:25.343Z,20.32
2022-11-02T14:41:07.464Z,19.92
2022-11-02T14:44:01.873Z,19.30
2022-11-02T14:46:59.515Z,21.07
2022-11-02T14:49:34.877Z,20.12
2022-11-02T14:52:16.952Z,21.37
2022-11-02T14:55:20.237Z,21.80
2022-11-02T14:57:59.240Z,24.00
2022-11-02T15:00:50.187Z,23.12
2022-11-02T15:03:34.877Z,24.72
2022-11-02T15:06:13.688Z,24.10
2022-11-02T15:09:00.641Z,27.55
2022-11-02T15:11:51.612Z,29.30
2022-11-02T15:14:42.685Z,40.43
2022-11-02T15:17:18.950Z,46.10
2022-11-02T15:19:52.371Z,40.58
2022-11-02T15:22:45.715Z,35.83
2022-11-02T15:25:27.465Z,27.30
2022-11-02T15:28:09.268Z,29.77
2022-11-02T15:30:47.115Z,28.77
2022-11-02T15:33:31.590Z,26.57
2022-11-02T15:36:01.186Z,22.42
2022-11-02T15:38:35.234Z,21.27
2022-11-02T15:41:35.351Z,21.93
2022-11-02T15:44:36.194Z,21.30
2022-11-02T15:47:48.016Z,21.80
2022-11-02T15:50:26.552Z,23.50
2022-11-02T15:53:34.924Z,21.33
2022-11-02T15:56:10.444Z,20.65
2022-11-02T15:59:18.715Z,22.75
2022-11-02T16:01:48.356Z,25.62
2022-11-02T16:04:21.113Z,26.15
2022-11-02T16:06:49.362Z,22.52
2022-11-02T16:09:35.736Z,25.72
2022-11-02T16:12:23.191Z,26.23
2022-11-02T16:15:14.373Z,28.83
2022-11-02T16:17:42.101Z,26.95
2022-11-02T16:20:19.805Z,25.95
2022-11-02T16:22:57.874Z,24.92
2022-11-02T16:25:45.597Z,23.25
2022-11-02T16:28:31.976Z,22.95
2022-11-02T16:31:18.489Z,24.67
2022-11-02T16:33:55.620Z,25.05
2022-11-02T16:36:33.076Z,25.70
2022-11-02T16:39:07.570Z,24.90
2022-11-02T16:41:36.434Z,30.15
2022-11-02T16:44:14.872Z,28.02
2022-11-02T16:46:49.985Z,26.90
2022-11-02T16:49:23.820Z,22.30
2022-11-02T16:52:02.549Z,19.50
2022-11-02T16:54:40.297Z,22.27
2022-11-02T16:57:24.738Z,19.73
2022-11-02T16:59:59.618Z,22.40
2022-11-02T17:02:42.524Z,20.05
2022-11-02T17:05:21.519Z,19.62
2022-11-02T17:08:04.632Z,20.25
2022-11-02T17:10:35.774Z,21.85
2022-11-02T17:13:06.781Z,21.87
2022-11-02T17:15:36.448Z,21.68
2022-11-02T17:18:27.267Z,24.80
2022-11-02T17:21:21.646Z,23.75
2022-11-02T17:23:49.641Z,26.42
2022-11-02T17:26:28.524Z,25.88
2022-11-02T17:29:01.855Z,24.52
2022-11-02T17:31:37.506Z,23.20
2022-11-02T17:34:15.278Z,24.27
2022-11-02T17:36:48.415Z,20.90
2022-11-02T17:39:18.137Z,21.02
2022-11-02T17:42:13.094Z,20.37
2022-11-02T17:44:41.269Z,19.73
2022-11-02T17:47:14.136Z,19.40
2022-11-02T17:49:41.615Z,18.07
2022-11-02T17:52:15.804Z,20.02
2022-11-02T17:54:43.194Z,20.27
2022-11-02T17:57:14.815Z,20.23
2022-11-02T17:59:42.316Z,27.52
2022-11-02T18:02:15.459Z,24.92
2022-11-02T18:07:11.753Z,24.43
2022-11-02T18:09:39.959Z,28.50
2022-11-02T18:12:14.499Z,23.25
2022-11-02T18:14:41.998Z,22.22
2022-11-02T18:17:09.681Z,20.88
2022-11-02T18:19:37.124Z,21.25
2022-11-02T18:22:04.651Z,23.05
2022-11-02T18:24:32.023Z,22.17
2022-11-02T18:26:59.545Z,22.85
2022-11-02T18:29:27.043Z,22.40
2022-11-02T18:31:54.287Z,23.40
2022-11-02T18:34:21.757Z,26.42
2022-11-02T18:36:49.313Z,23.27
2022-11-02T18:39:16.831Z,21.37
2022-11-02T18:41:44.193Z,26.17
2022-11-02T18:44:15.486Z,22.27
2022-11-02T18:46:42.173Z,21.50
2022-11-02T18:49:09.744Z,22.17
2022-11-02T18:51:37.289Z,36.53
2022-11-02T18:54:06.050Z,64.32
2022-11-02T18:56:34.071Z,49.98
2022-11-02T18:59:01.609Z,31.48
2022-11-02T19:01:29.542Z,40.65
2022-11-02T19:03:59.835Z,29.77
2022-11-02T19:06:49.823Z,29.20
2022-11-02T19:09:21.010Z,26.65
2022-11-02T19:12:04.993Z,24.47
2022-11-02T19:17:07.544Z,23.27
2022-11-02T19:19:35.895Z,24.98
2022-11-02T19:22:03.905Z,23.75
2022-11-02T19:24:31.356Z,25.35
2022-11-02T19:26:59.018Z,31.27
2022-11-02T19:29:26.611Z,32.83
2022-11-02T19:31:53.923Z,28.05
2022-11-02T19:34:22.590Z,28.10
2022-11-02T19:36:50.160Z,27.95
2022-11-02T19:39:17.716Z,25.37
2022-11-02T19:41:46.935Z,25.02
2022-11-02T19:44:14.182Z,25.85
2022-11-02T19:49:09.081Z,29.70
2022-11-02T19:51:36.599Z,28.23
2022-11-02T19:54:04.756Z,28.10
2022-11-02T19:56:35.218Z,27.82
2022-11-02T19:59:04.400Z,33.73
2022-11-02T20:01:36.373Z,35.28
2022-11-02T20:04:04.521Z,33.88
2022-11-02T20:06:36.034Z,26.68
2022-11-02T20:09:06.325Z,25.52
2022-11-02T20:11:35.521Z,24.57
2022-11-02T20:14:04.883Z,25.32
2022-11-02T20:16:32.468Z,27.70
2022-11-02T20:19:00.338Z,27.80
2022-11-02T20:21:34.602Z,28.77
2022-11-02T20:24:00.486Z,30.52
2022-11-02T20:26:36.430Z,31.48
2022-11-02T20:29:05.805Z,31.02
2022-11-02T20:31:39.956Z,30.20
2022-11-02T20:34:08.823Z,28.32
2022-11-02T20:36:36.343Z,28.98
2022-11-02T20:39:05.121Z,26.60
2022-11-02T20:41:33.188Z,25.68
2022-11-02T20:44:01.220Z,25.55
2022-11-02T20:46:37.698Z,23.87
2022-11-02T20:49:08.516Z,22.37
2022-11-02T20:51:29.764Z,21.65
2022-11-02T20:53:57.612Z,20.95
2022-11-02T20:56:25.187Z,19.20
2022-11-02T20:58:55.631Z,22.62
2022-11-02T21:01:22.096Z,22.15
2022-11-02T21:03:49.888Z,21.93
2022-11-02T21:06:17.500Z,24.67
2022-11-02T21:08:44.857Z,22.27
2022-11-02T21:11:30.486Z,22.70
2022-11-02T21:13:57.797Z,23.02
2022-11-02T21:16:25.416Z,26.15
2022-11-02T21:18:52.736Z,21.82
2022-11-02T21:21:21.511Z,22.52
2022-11-02T21:23:49.053Z,21.65
2022-11-02T21:26:16.908Z,22.22
2022-11-02T21:28:45.675Z,21.12
2022-11-02T21:31:21.123Z,20.45
2022-11-02T21:33:49.707Z,22.22
2022-11-02T21:36:18.354Z,20.37
2022-11-02T21:38:48.153Z,19.30
2022-11-02T21:41:24.043Z,17.85
2022-11-02T21:43:52.083Z,19.67
2022-11-02T21:46:20.049Z,20.85
2022-11-02T21:48:48.091Z,22.55
2022-11-02T21:51:19.999Z,23.55
2022-11-02T21:53:49.456Z,24.05
2022-11-02T21:56:20.560Z,22.48
2022-11-02T21:58:48.963Z,22.85
2022-11-02T22:01:42.481Z,20.62
2022-11-02T22:04:13.550Z,20.25
2022-11-02T22:06:41.967Z,18.95
2022-11-02T22:09:12.381Z,20.35
2022-11-02T22:11:40.571Z,20.37
2022-11-02T22:14:08.237Z,20.10
2022-11-02T22:16:39.576Z,19.80
2022-11-02T22:19:13.782Z,19.48
2022-11-02T22:21:45.600Z,19.00
2022-11-02T22:24:13.253Z,19.12
2022-11-02T22:26:41.069Z,20.08
2022-11-02T22:29:08.959Z,20.10
2022-11-02T22:31:39.804Z,18.90
2022-11-02T22:34:10.028Z,17.52
2022-11-02T22:36:40.497Z,17.77
2022-11-02T22:39:12.202Z,20.55
2022-11-02T22:41:47.978Z,23.85
2022-11-02T22:44:18.602Z,39.65
2022-11-02T22:46:49.192Z,34.80
2022-11-02T22:49:19.361Z,55.70
2022-11-02T22:51:49.985Z,75.17
2022-11-02T22:54:19.511Z,89.87
2022-11-02T22:56:49.120Z,44.65
2022-11-02T22:59:16.707Z,19.10
2022-11-02T23:01:44.802Z,25.43
2022-11-02T23:04:13.036Z,48.08
2022-11-02T23:06:40.417Z,41.98
2022-11-02T23:09:10.634Z,32.67
2022-11-02T23:11:38.409Z,19.60
2022-11-02T23:14:12.765Z,18.23
2022-11-02T23:16:48.769Z,17.87
2022-11-02T23:19:30.532Z,17.35
2022-11-02T23:22:16.043Z,18.15
2022-11-02T23:25:09.096Z,18.12
2022-11-02T23:28:16.069Z,18.27
2022-11-02T23:31:02.652Z,17.12
2022-11-02T23:33:32.732Z,17.65
2022-11-02T23:36:11.763Z,20.25
2022-11-02T23:39:02.613Z,34.88
2022-11-02T23:41:32.670Z,77.25
2022-11-02T23:44:13.296Z,24.70
2022-11-02T23:46:44.614Z,19.05
2022-11-02T23:49:13.388Z,15.68
2022-11-02T23:51:59.390Z,15.72
2022-11-02T23:54:45.508Z,17.65
2022-11-02T23:57:13.274Z,15.80
2022-11-02T23:59:40.742Z,29.00
